createdAt,value
2022-07-28T00:03:10.856Z,6.78
2022-07-28T00:08:13.130Z,5.87
2022-07-28T00:13:15.068Z,8.55
2022-07-28T00:18:16.793Z,5.60
2022-07-28T00:23:18.589Z,7.23
2022-07-28T00:28:20.279Z,6.40
2022-07-28T00:33:22.103Z,7.68
2022-07-28T00:38:24.113Z,7.90
2022-07-28T00:43:25.810Z,7.43
2022-07-28T00:48:27.779Z,6.43
2022-07-28T00:53:29.707Z,9.15
2022-07-28T00:58:31.722Z,7.80
2022-07-28T01:03:36.105Z,9.57
2022-07-28T01:09:01.695Z,6.28
2022-07-28T01:14:21.045Z,6.47
2022-07-28T01:19:37.028Z,6.43
2022-07-28T01:25:03.522Z,7.70
2022-07-28T01:30:30.781Z,7.18
2022-07-28T01:35:41.748Z,6.40
2022-07-28T01:40:45.584Z,7.47
2022-07-28T01:45:50.279Z,7.45
2022-07-28T01:50:55.412Z,8.23
2022-07-28T01:55:59.661Z,6.53
2022-07-28T02:01:03.676Z,6.40
2022-07-28T02:06:06.767Z,6.63
2022-07-28T02:11:27.116Z,5.50
2022-07-28T02:16:30.669Z,7.05
2022-07-28T02:21:33.674Z,6.88
2022-07-28T02:26:46.544Z,7.75
2022-07-28T02:31:57.086Z,7.55
2022-07-28T02:37:01.955Z,7.75
2022-07-28T02:42:07.258Z,9.20
2022-07-28T02:47:15.219Z,9.07
2022-07-28T02:52:19.229Z,7.78
2022-07-28T02:57:23.167Z,9.23
2022-07-28T03:02:25.843Z,8.45
2022-07-28T03:07:32.550Z,8.27
2022-07-28T03:12:34.583Z,8.45
2022-07-28T03:17:36.327Z,6.20
2022-07-28T03:22:38.744Z,7.25
2022-07-28T03:27:43.714Z,7.65
2022-07-28T03:32:53.607Z,6.10
2022-07-28T03:37:59.263Z,7.40
2022-07-28T03:43:08.126Z,10.20
2022-07-28T03:48:09.809Z,7.82
2022-07-28T03:53:23.997Z,8.40
2022-07-28T03:58:28.515Z,7.80
2022-07-28T04:03:42.468Z,9.27
2022-07-28T04:08:45.276Z,8.90
2022-07-28T04:13:46.980Z,9.02
2022-07-28T04:18:48.713Z,10.68
2022-07-28T04:23:50.480Z,8.88
2022-07-28T04:28:52.164Z,12.23
2022-07-28T04:33:53.852Z,10.82
2022-07-28T04:38:59.214Z,13.07
2022-07-28T04:44:00.888Z,9.80
2022-07-28T04:49:04.100Z,10.35
2022-07-28T04:54:05.927Z,10.18
2022-07-28T04:59:07.693Z,10.95
2022-07-28T05:04:09.448Z,11.13
2022-07-28T05:09:11.336Z,11.10
2022-07-28T05:14:13.245Z,9.48
2022-07-28T05:19:15.560Z,15.10
2022-07-28T05:24:17.587Z,12.57
2022-07-28T05:29:19.411Z,13.47
2022-07-28T05:34:21.438Z,18.08
2022-07-28T05:39:24.348Z,13.27
2022-07-28T05:44:26.388Z,13.82
2022-07-28T05:49:28.105Z,13.63
2022-07-28T05:54:29.787Z,15.82
2022-07-28T05:59:31.437Z,14.15
2022-07-28T06:04:33.530Z,16.92
2022-07-28T06:09:35.816Z,15.90
2022-07-28T06:14:37.681Z,15.70
2022-07-28T06:19:39.688Z,15.97
2022-07-28T06:24:42.091Z,16.47
2022-07-28T06:29:44.013Z,15.30
2022-07-28T06:34:45.700Z,13.17
2022-07-28T06:39:47.389Z,14.30
2022-07-28T06:44:59.034Z,16.05
2022-07-28T06:50:02.083Z,12.68
2022-07-28T06:55:05.494Z,11.57
2022-07-28T07:00:11.128Z,11.98
2022-07-28T07:05:13.969Z,9.88
2022-07-28T07:10:15.834Z,12.85
2022-07-28T07:15:17.656Z,11.10
2022-07-28T07:20:19.681Z,12.43
2022-07-28T07:25:21.441Z,10.33
2022-07-28T07:30:23.072Z,9.63
2022-07-28T07:35:24.928Z,10.00
2022-07-28T07:40:26.615Z,11.47
2022-07-28T07:45:28.318Z,10.82
2022-07-28T07:50:30.336Z,12.68
2022-07-28T07:55:34.371Z,10.10
2022-07-28T08:00:39.516Z,12.65
2022-07-28T08:05:41.337Z,11.53
2022-07-28T08:10:43.058Z,9.17
2022-07-28T08:15:44.926Z,12.20
2022-07-28T08:20:46.613Z,8.87
2022-07-28T08:25:48.519Z,10.23
2022-07-28T08:30:50.273Z,11.77
2022-07-28T08:35:52.524Z,10.65
2022-07-28T08:40:57.262Z,10.70
2022-07-28T08:46:01.131Z,12.73
2022-07-28T08:51:05.727Z,8.80
2022-07-28T08:56:12.126Z,10.23
2022-07-28T09:01:14.248Z,9.30
2022-07-28T09:06:17.298Z,11.00
2022-07-28T09:11:19.073Z,10.52
2022-07-28T09:16:20.903Z,8.87
2022-07-28T09:21:22.572Z,8.37
2022-07-28T09:26:24.422Z,7.47
2022-07-28T09:31:28.718Z,10.40
2022-07-28T09:36:38.865Z,13.57
2022-07-28T09:41:56.941Z,10.60
2022-07-28T09:46:58.836Z,10.63
2022-07-28T09:52:02.559Z,8.98
2022-07-28T09:57:05.015Z,7.53
2022-07-28T10:02:07.095Z,7.65
2022-07-28T10:07:17.175Z,8.60
2022-07-28T10:12:24.760Z,8.45
2022-07-28T10:17:34.217Z,7.68
2022-07-28T10:22:43.045Z,8.32
2022-07-28T10:27:48.553Z,10.50
2022-07-28T10:32:54.379Z,5.72
2022-07-28T10:38:03.927Z,7.07
2022-07-28T10:43:05.900Z,6.45
2022-07-28T10:48:08.567Z,8.23
2022-07-28T10:53:11.737Z,10.18
2022-07-28T10:58:25.122Z,7.28
2022-07-28T11:03:45.548Z,6.45
2022-07-28T11:08:47.803Z,8.07
2022-07-28T11:13:50.368Z,8.15
2022-07-28T11:19:07.771Z,9.90
2022-07-28T11:24:58.363Z,8.05
2022-07-28T11:30:00.255Z,6.30
2022-07-28T11:35:07.936Z,6.38
2022-07-28T11:40:32.598Z,6.78
2022-07-28T11:45:38.832Z,7.80
2022-07-28T11:50:42.959Z,5.65
2022-07-28T11:55:55.499Z,6.80
2022-07-28T12:01:19.303Z,5.57
2022-07-28T12:06:28.448Z,6.07
2022-07-28T12:11:34.635Z,5.15
2022-07-28T12:16:39.644Z,6.03
2022-07-28T12:21:55.356Z,7.00
2022-07-28T12:26:59.455Z,5.10
2022-07-28T12:32:04.833Z,8.98
2022-07-28T12:37:09.784Z,6.45
2022-07-28T12:42:12.908Z,7.28
2022-07-28T12:47:17.665Z,6.53
2022-07-28T12:52:25.111Z,6.80
2022-07-28T12:57:49.953Z,5.90
2022-07-28T13:02:55.241Z,4.15
2022-07-28T13:08:06.011Z,5.43
2022-07-28T13:13:08.019Z,5.57
2022-07-28T13:18:10.027Z,11.98
2022-07-28T13:23:11.861Z,8.02
2022-07-28T13:28:27.540Z,5.38
2022-07-28T13:33:29.322Z,4.40
2022-07-28T13:43:36.215Z,5.53
2022-07-28T13:48:57.376Z,10.35
2022-07-28T13:54:01.806Z,7.50
2022-07-28T13:59:03.687Z,7.15
2022-07-28T14:04:16.508Z,9.13
2022-07-28T14:09:21.228Z,5.15
2022-07-28T14:14:24.948Z,7.90
2022-07-28T14:19:38.450Z,7.00
2022-07-28T14:24:42.209Z,9.32
2022-07-28T14:29:43.946Z,6.25
2022-07-28T14:34:45.700Z,4.88
2022-07-28T14:39:47.579Z,4.53
2022-07-28T14:44:49.258Z,7.35
2022-07-28T14:49:57.154Z,5.65
2022-07-28T14:55:00.247Z,7.57
2022-07-28T15:00:02.282Z,4.75
2022-07-28T15:05:05.005Z,5.88
2022-07-28T15:10:07.091Z,5.13
2022-07-28T15:15:09.318Z,7.85
2022-07-28T15:20:11.382Z,9.93
2022-07-28T15:30:14.748Z,4.83
2022-07-28T15:35:18.366Z,8.02
2022-07-28T15:40:20.208Z,6.30
2022-07-28T15:45:22.576Z,7.93
2022-07-28T15:50:24.581Z,8.32
2022-07-28T16:00:28.067Z,6.13
2022-07-28T16:05:30.238Z,5.30
2022-07-28T16:10:33.338Z,9.65
2022-07-28T16:15:35.212Z,6.35
2022-07-28T16:20:37.769Z,4.32
2022-07-28T16:25:44.654Z,15.98
2022-07-28T16:30:47.974Z,4.18
2022-07-28T16:35:49.789Z,5.18
2022-07-28T16:40:54.088Z,4.97
2022-07-28T16:45:55.980Z,5.57
2022-07-28T16:50:58.058Z,7.10
2022-07-28T16:55:59.903Z,8.13
2022-07-28T17:06:03.742Z,6.53
2022-07-28T17:11:05.517Z,4.35
2022-07-28T17:16:07.291Z,5.07
2022-07-28T17:21:09.000Z,10.75
2022-07-28T17:31:37.481Z,5.70
2022-07-28T17:36:41.374Z,9.98
2022-07-28T17:41:44.108Z,4.82
2022-07-28T17:46:47.181Z,13.00
2022-07-28T17:51:49.002Z,8.63
2022-07-28T17:56:53.964Z,8.98
2022-07-28T18:01:55.696Z,7.55
2022-07-28T18:06:57.420Z,4.80
2022-07-28T18:11:59.155Z,5.63
2022-07-28T18:17:00.978Z,4.57
2022-07-28T18:22:02.754Z,4.38
2022-07-28T18:27:04.684Z,6.20
2022-07-28T18:32:09.857Z,7.05
2022-07-28T18:37:15.144Z,5.72
2022-07-28T18:42:17.506Z,7.05
2022-07-28T18:47:20.204Z,8.30
2022-07-28T18:52:23.250Z,6.35
2022-07-28T18:57:24.956Z,5.83
2022-07-28T19:07:30.048Z,13.82
2022-07-28T19:12:32.017Z,5.63
2022-07-28T19:17:34.044Z,5.57
2022-07-28T19:22:35.783Z,5.97
2022-07-28T19:27:38.156Z,4.90
2022-07-28T19:32:41.726Z,8.65
2022-07-28T19:37:44.086Z,5.88
2022-07-28T19:42:48.207Z,5.35
2022-07-28T19:47:50.185Z,6.15
2022-07-28T19:52:52.010Z,6.32
2022-07-28T19:57:59.012Z,4.22
2022-07-28T20:03:00.822Z,6.30
2022-07-28T20:08:02.562Z,7.67
2022-07-28T20:13:04.807Z,6.72
2022-07-28T20:18:06.970Z,9.00
2022-07-28T20:23:08.997Z,7.25
2022-07-28T20:28:12.252Z,6.40
2022-07-28T20:33:14.046Z,9.95
2022-07-28T20:38:15.669Z,5.77
2022-07-28T20:43:17.407Z,5.67
2022-07-28T20:48:19.254Z,6.30
2022-07-28T20:53:20.920Z,8.10
2022-07-28T20:58:22.660Z,9.93
2022-07-28T21:03:25.683Z,5.47
2022-07-28T21:08:27.479Z,7.00
2022-07-28T21:13:29.999Z,6.40
2022-07-28T21:18:31.866Z,8.73
2022-07-28T21:23:35.020Z,5.65
2022-07-28T21:28:55.677Z,9.63
2022-07-28T21:33:57.386Z,5.60
2022-07-28T21:38:59.090Z,6.23
2022-07-28T21:44:04.086Z,5.77
2022-07-28T21:49:06.230Z,5.95
2022-07-28T21:54:08.825Z,7.45
2022-07-28T21:59:10.776Z,5.30
2022-07-28T22:04:12.712Z,6.57
2022-07-28T22:09:15.155Z,7.45
2022-07-28T22:14:17.259Z,7.88
2022-07-28T22:19:19.174Z,6.63
2022-07-28T22:24:21.007Z,6.05
2022-07-28T22:29:22.658Z,10.57
2022-07-28T22:34:24.784Z,9.98
2022-07-28T22:39:26.929Z,8.80
2022-07-28T22:44:29.516Z,5.13
2022-07-28T22:54:37.006Z,6.50
2022-07-28T22:59:40.027Z,9.90
2022-07-28T23:04:42.062Z,7.60
2022-07-28T23:09:44.024Z,9.00
2022-07-28T23:14:45.771Z,9.33
2022-07-28T23:19:47.504Z,10.20
2022-07-28T23:24:49.335Z,8.67
2022-07-28T23:29:51.084Z,5.07
2022-07-28T23:34:52.793Z,10.87
2022-07-28T23:39:55.030Z,8.87
2022-07-28T23:44:56.736Z,7.97
2022-07-28T23:49:58.400Z,8.13
2022-07-28T23:55:00.268Z,5.07
